woensdag 15 juli 2020 | Home | Bestenlijsten | Bestenlijsten NL | Calculators | Nieuws | Records | Uitslagen | Wedstrijden | VZA Ranglijsten | Weer |
 
Recent nieuws meer nieuws
20-06: Staf Dobbelaere: een schaap met vijf poten?
09-06: Woordenstrijd zonder koek
02-06: Terugblik op het NK marathon 1964 in Vlissingen
28-05: Is snelheid een relatief begrip? Maar dan op herhaling
19-05: Snelheid een relatief begrip?
06-05: Mag huidig niveau hardlopen zomaar vergeleken worden met dat van de jaren 70?
Wedstrijdagenda meer wedstrijden
za 18-07: 2e Track Meeting Utrecht
wo 22-07: Welcome Back! Vlissingen
vr 07-08: 3e Track Meeting Utrecht
 
Zoek tenminste met 3 tekens van wedstrijd, datum, plaats of atleet

Corn Boys Loop

Sas van Gent, zaterdag 16 maart 2019 - Organisatie: Corn Boys
15.1 km
PltsNaam
Tijdkm/umin/kmm/secgap
1  Sander D'hontKuitaart57.12minMse   15.839  3:474.40-
2  Chris de SmitHulst59.10minM40   15.313  3:554.25+1:58
3  Rudy van GuyseStekene1.01.58minMse   14.621  4:064.06+4:46
4  Fons De RijckeKloosterzande1.02.09minMse   14.578  4:074.05+4:57
5  Tonny DemaretSint-Kruiswinkel1.03.03minMse   14.370  4:113.99+5:51
6  Luc D'hontZaffelare1.10.05minMse   12.927  4:383.59+12:53
7  Jos WynsHallaar1.13.06minMse   12.394  4:503.44+15:54
8  Franky StandaertZelzate1.16.20minMse   11.869  5:033.30+19:08
9  Paul ObbelsNijlen1.16.39minMse   11.820  5:053.28+19:27
10  Johnny DoomsTerneuzen1.17.58minM65   11.620  5:103.23+20:46
11  Sarah BogaertDuffel1.18.04minVse   11.605  5:103.22+20:52
12  Carmen BogaertStekene1.18.04minVse   11.605  5:103.22+20:52
13  Frans VerwilligenHulst1.24.32minMse   10.718  5:362.98+27:20
14  Nienke BoogmansMoerbeke 1.25.03minVse   10.653  5:382.96+27:51
15  Ko De KoeijerZaamslag1.26.01minMse   10.533  5:422.93+28:49
16  Mia ClijmansVosselaar1.28.09minVse   10.278  5:502.85+30:57
17  Els ZweistraTerneuzen1.31.30minV60   9.902  6:042.75+34:18
18  Eddy van BovenSchoonaarde1.32.23minMse   9.807  6:072.72+35:11
Mannen: 13 (72.22%) => M40=1 - M65=1 - Mse=11
Vrouwen: 5 (27.78%) => V60=1 - Vse=4

Overzicht Top3, winnares en aantal deelnemers van aanwezige edities

JaarWinnaarTijd2eTijd 3eTijdWinnaresTijd#

15.1 km

2019Sander D'hont57:12Chris de Smit59:10Rudy van Guyse1:01:58Carmen Bogaert1:18:0418

15.7 km

2018Jordi van Guyse53:04Frederik Christiaens54:14Kevin D'Hont54:55Sophie Boulet1:16:2834

15.07 km

2017Frederik Christiaens55:38Henk de Brauwer58:03Allan van Alten1:01:13Martine Boute1:11:3442

15.7 km

2015Sander Post54:30Frederik Christiaens56:20Luc D'heer1:00:46Nadia Bleyenberg1:18:0653

15.6 km

2014Sander Verminck52:43Edwin de la Ruelle55:53Matti Buysse57:12Martine Boute1:08:3861
8.6 km
PltsNaam
Tijdkm/umin/kmm/secgap
1  Jens TaeckensOudenaarde33.42minMse   15.312  3:554.25-
2  Ronny WagenaarMelsele34.34minMse   14.928  4:014.15+0:52
3  Jan-Niek BoeijeTerneuzen37.16minMse   13.846  4:203.85+3:34
4  Ralf SchaaljeAxel37.29minMse   13.766  4:223.82+3:47
5  Cathy PoppeTerneuzen37.38minV40   13.711  4:233.81+3:56
6  Erwin van BeljouwKloosterzande38.06minMse   13.543  4:263.76+4:24
7  Geert De PooterSas van Gent38.29minMse   13.408  4:283.72+4:47
8  Patrick RoosenboomZele39.28minMse   13.074  4:353.63+5:46
9  Sharon BogaertStekene39.32minVse   13.052  4:363.63+5:50
10  Ivan De KeyserWaasmunster39.53minMse   12.938  4:383.59+6:11
11  Jos Van GrembergheKoewacht40.00minMse   12.900  4:393.58+6:18
12  Chris SchelkensDendermonde40.45minMse   12.663  4:443.52+7:03
13  Martin NoensKemzeke41.20minMse   12.484  4:483.47+7:38
14  Partick MichielsNieuw-Namen41.33minMse   12.419  4:503.45+7:51
15  Cedric De BeeldeSint-Niklaas43.26minMse   11.880  5:033.30+9:44
16  Jochem De BeeldeSint-Niklaas43.32minMse   11.853  5:043.29+9:50
17  Raf JanssensSint-Lievens-Houtem44.39minMse   11.557  5:123.21+10:57
18  Patrick CeuppensHalle44.55minMse   11.488  5:133.19+11:13
19  Ronny AdriaenssensLokeren45.12minMse   11.416  5:153.17+11:30
20  Mark GorisVosselaar45.19minMse   11.387  5:163.16+11:37
21  Ludwig Van GeyteZele45.28minMse   11.349  5:173.15+11:46
22  Eddy WaelputStekene45.46minMse   11.275  5:193.13+12:04
23  Rudi CocquytWondelgem46.17minMse   11.149  5:233.10+12:35
24  Wanda ZegersTerneuzen46.53minV45   11.006  5:273.06+13:11
25  Leo HoeksmaKoewacht50.18minMse   10.258  5:512.85+16:36
26  Annelies RombautKieldrecht51.05minVse   10.101  5:562.81+17:23
27  Arlete HendrickxHallaar51.05minVse   10.101  5:562.81+17:23
28  Philippe Van GeertruyEkeren52.54minMse   9.754  6:092.71+19:12
29  Issabelle JacobsLokeren53.57minVse   9.564  6:162.66+20:15
30  Rudy VandeveldeWachtebeke54.25minMse   9.482  6:202.63+20:43
31  Norbert InghelsEvergem56.06minMse   9.198  6:312.55+22:24
32  Arsene van LakenAssenede56.12minMse   9.181  6:322.55+22:30
33  Ine de DeyneKemzeke56.29minVse   9.135  6:342.54+22:47
34  Romain BolssensKieldrecht57.23minMse   8.992  6:402.50+23:41
35  Jean Pierre D'hauwZelzate57.50minMse   8.922  6:432.48+24:08
36  Anotoine MathysPinte1.00.25minMse   8.541  7:022.37+26:43
37  Ilse De SchryverVrasene1.01.19minVse   8.415  7:082.34+27:37
38  Aime SamsonSint-Pauwels1.02.04minVse   8.314  7:132.31+28:22
39  Greta de VylderSint-Gilles-Waas1.06.32minVse   7.756  7:442.15+32:50
40  Wim CopietersStrombeek Bever1.06.32minMse   7.756  7:442.15+32:50
Mannen: 30 (75%) => Mse=30
Vrouwen: 10 (25%) => V40=1 - V45=1 - Vse=8

Snelheid en tempo zijn berekend op de vermelde afstand. Bij een onjuiste afstand wijken deze uiteraard af!

Fouten melden via info@atletiekzeeland.nl Categorie fout? Mail dan geboortedatum. (geldt alleen voor Zeeuwen)

De server had 0.099 seconden nodig om deze lijst met 58 prestaties samen te stellen.

Terug naar boven


 
Recente Zeeuwse prestaties meer prestaties
05-07: Stratenloop Zele (6)
10 km Sven Vermeulen (PR 36.39)37.47  M40
10 km Jonnathan Duinkerke (debuut)40.02  Mse
10 km Arthur van Aartsen (PR 41.22)45.05  M45
10 km Wendy Wijnstra (PR 45.24)45.35  V35
10 km Maurice Steketee (PR 41.35)45.37  M35
5 km Wouter Verstraate (PR)16.05  Mse
04-07: Testwedstrijd Papendal (1)
1500 m Tim van den Broeke (PR 3.45.11)3.45.99  Mse
Atletiek Zeeland © 2020